PWSweather.com
Personal Weather Stations
Station Observations
KMAMEDFI2
Medfield, MA 02052

Medfield, MA 02052

Lat: 42.1900822, Lon: -71.3296889

Elevation: 138

Station Type: Rainwise WS MK-III

http://www.medfieldweather.com

High Low Average
Temperature 58.0°F14.4°C 44.7°F7.1°C 52.9°F11.6°C
Dew Point 57.4°F14.1°C 43.6°F6.4°C 52.1°F11.2°C
Winds 13.8 mph 22.2 kmh Calm Calm 3.0 mph SSE4.8 kmh SSE
Wind Gusts 13.8 mph22.2 kmh -- 3.0 mph4.8 kmh
Humidity 98% 96% 97%
Pressure 31.39 in1063.0 mb 30.62 in1036.9 mb -
Precipitation 0.97 in24.6 mm - -
Hour Temp Dew Point Humidity Winds Wind Gusts Pressure Precip Precip Rate Daily Precip Total
12:00 AM 43.8°F6.6°C 42.8°F6.0°C 96% Calm Calm -- 31.39 in1063.0 mb - 0.00 in0.0 mm 0.13 in3.3 mm
12:10 AM 43.4°F6.3°C 42.3°F5.7°C 96% Calm Calm -- 31.39 in1063.0 mb - 0.00 in0.0 mm 0.13 in3.3 mm
12:20 AM 44.0°F6.7°C 43.0°F6.1°C 96% Calm Calm -- 31.39 in1063.0 mb - 0.00 in0.0 mm 0.13 in3.3 mm
12:30 AM 44.1°F6.7°C 43.0°F6.1°C 96% 1.2 mph S1.9 kmh S 1.2 mph1.9 kmh 31.39 in1063.0 mb - 0.00 in0.0 mm 0.13 in3.3 mm
12:40 AM 45.6°F7.6°C 44.8°F7.1°C 97% 2.3 mph SE3.7 kmh SE 1.2 mph1.9 kmh 31.38 in1062.6 mb - 0.00 in0.0 mm 0.13 in3.3 mm
12:50 AM 46.3°F7.9°C 45.4°F7.4°C 97% 1.2 mph S1.9 kmh S 2.3 mph3.7 kmh 31.38 in1062.6 mb - 0.00 in0.0 mm 0.13 in3.3 mm
01:00 AM 47.1°F8.4°C 46.2°F7.9°C 97% 3.5 mph SE5.6 kmh SE 2.3 mph3.7 kmh 31.39 in1063.0 mb - 0.00 in0.0 mm 0.00 in0.0 mm
01:10 AM 47.4°F8.6°C 46.6°F8.1°C 97% 2.3 mph SSE3.7 kmh SSE 2.3 mph3.7 kmh 31.39 in1063.0 mb - 0.00 in0.0 mm 0.00 in0.0 mm
01:20 AM 47.6°F8.7°C 46.7°F8.2°C 97% 2.3 mph S3.7 kmh S 3.5 mph5.6 kmh 31.39 in1063.0 mb - 0.00 in0.0 mm 0.00 in0.0 mm
01:30 AM 48.1°F8.9°C 47.3°F8.5°C 97% 3.5 mph SW5.6 kmh SW 2.3 mph3.7 kmh 31.38 in1062.6 mb - 0.00 in0.0 mm 0.00 in0.0 mm
01:40 AM 48.3°F9.1°C 47.5°F8.6°C 97% 1.2 mph SE1.9 kmh SE 2.3 mph3.7 kmh 31.39 in1063.0 mb - 0.00 in0.0 mm 0.00 in0.0 mm
01:50 AM 48.6°F9.2°C 47.7°F8.7°C 97% 8.1 mph E13.0 kmh E 8.1 mph13.0 kmh 31.38 in1062.6 mb - 0.00 in0.0 mm 0.00 in0.0 mm
02:00 AM 48.8°F9.3°C 47.9°F8.8°C 97% 2.3 mph S3.7 kmh S 5.8 mph9.3 kmh 31.39 in1063.0 mb - 0.00 in0.0 mm 0.00 in0.0 mm
02:10 AM 48.9°F9.4°C 48.1°F8.9°C 97% 3.5 mph WSW5.6 kmh WSW 3.5 mph5.6 kmh 31.39 in1063.0 mb - 0.00 in0.0 mm 0.00 in0.0 mm
02:20 AM 48.9°F9.4°C 48.1°F8.9°C 97% 1.2 mph SSE1.9 kmh SSE 1.2 mph1.9 kmh 31.39 in1063.0 mb - 0.00 in0.0 mm 0.00 in0.0 mm
02:30 AM 48.9°F9.4°C 48.1°F8.9°C 97% 3.5 mph SSW5.6 kmh SSW 2.3 mph3.7 kmh 31.39 in1063.0 mb - 0.00 in0.0 mm 0.00 in0.0 mm
02:40 AM 48.9°F9.4°C 48.1°F8.9°C 97% 2.3 mph SW3.7 kmh SW 1.2 mph1.9 kmh 31.39 in1063.0 mb - 0.00 in0.0 mm 0.00 in0.0 mm
02:50 AM 48.9°F9.4°C 48.1°F8.9°C 97% 2.3 mph S3.7 kmh S 1.2 mph1.9 kmh 31.39 in1063.0 mb - 0.00 in0.0 mm 0.00 in0.0 mm
03:00 AM 48.8°F9.3°C 48.0°F8.9°C 97% Calm Calm 2.3 mph3.7 kmh 31.38 in1062.6 mb - 0.00 in0.0 mm 0.00 in0.0 mm
03:10 AM 48.0°F8.9°C 47.2°F8.4°C 97% Calm Calm -- 31.37 in1062.3 mb - 0.00 in0.0 mm 0.00 in0.0 mm
03:20 AM 47.2°F8.4°C 46.4°F8.0°C 97% Calm Calm -- 31.37 in1062.3 mb - 0.00 in0.0 mm 0.00 in0.0 mm
03:30 AM 46.3°F7.9°C 45.5°F7.5°C 97% Calm Calm -- 31.37 in1062.3 mb - 0.00 in0.0 mm 0.00 in0.0 mm
03:40 AM 45.9°F7.7°C 45.1°F7.3°C 97% 1.2 mph SE1.9 kmh SE 1.2 mph1.9 kmh 31.36 in1062.0 mb - 0.00 in0.0 mm 0.00 in0.0 mm
03:50 AM 45.4°F7.4°C 44.6°F7.0°C 97% Calm Calm -- 31.35 in1061.6 mb - 0.00 in0.0 mm 0.00 in0.0 mm
04:00 AM 44.7°F7.1°C 43.6°F6.4°C 96% 1.2 mph ESE1.9 kmh ESE 2.3 mph3.7 kmh 31.34 in1061.3 mb - 0.00 in0.0 mm 0.00 in0.0 mm
04:10 AM 45.7°F7.6°C 44.9°F7.2°C 97% 1.2 mph SE1.9 kmh SE 1.2 mph1.9 kmh 31.33 in1061.0 mb - 0.00 in0.0 mm 0.00 in0.0 mm
04:20 AM 45.5°F7.5°C 44.7°F7.1°C 97% Calm Calm 1.2 mph1.9 kmh 31.33 in1061.0 mb - 0.00 in0.0 mm 0.00 in0.0 mm
04:30 AM 45.3°F7.4°C 44.5°F6.9°C 97% Calm Calm -- 31.33 in1061.0 mb - 0.00 in0.0 mm 0.00 in0.0 mm
04:40 AM 45.4°F7.4°C 44.6°F7.0°C 97% Calm Calm -- 31.32 in1060.6 mb - 0.00 in0.0 mm 0.00 in0.0 mm
04:50 AM 45.2°F7.3°C 44.4°F6.9°C 97% Calm Calm -- 31.32 in1060.6 mb - 0.00 in0.0 mm 0.00 in0.0 mm
05:00 AM 45.2°F7.3°C 44.4°F6.9°C 97% 1.2 mph NNW1.9 kmh NNW 1.2 mph1.9 kmh 31.32 in1060.6 mb - 0.00 in0.0 mm 0.00 in0.0 mm
05:10 AM 45.2°F7.3°C 44.4°F6.9°C 97% 1.2 mph SE1.9 kmh SE 1.2 mph1.9 kmh 31.32 in1060.6 mb - 0.00 in0.0 mm 0.00 in0.0 mm
05:20 AM 45.7°F7.6°C 44.9°F7.2°C 97% Calm Calm -- 31.31 in1060.3 mb - 0.00 in0.0 mm 0.00 in0.0 mm
05:30 AM 45.9°F7.7°C 45.1°F7.3°C 97% Calm Calm -- 31.31 in1060.3 mb - 0.00 in0.0 mm 0.00 in0.0 mm
05:40 AM 46.1°F7.8°C 45.3°F7.4°C 97% 2.3 mph SE3.7 kmh SE 1.2 mph1.9 kmh 31.31 in1060.3 mb - 0.00 in0.0 mm 0.00 in0.0 mm
05:50 AM 46.7°F8.2°C 45.9°F7.7°C 97% 2.3 mph S3.7 kmh S 2.3 mph3.7 kmh 31.31 in1060.3 mb - 0.00 in0.0 mm 0.00 in0.0 mm
06:00 AM 46.7°F8.2°C 45.9°F7.7°C 97% 2.3 mph E3.7 kmh E 1.2 mph1.9 kmh 31.30 in1059.9 mb - 0.00 in0.0 mm 0.00 in0.0 mm
06:10 AM 46.7°F8.2°C 45.9°F7.7°C 97% 2.3 mph E3.7 kmh E 1.2 mph1.9 kmh 31.30 in1059.9 mb - 0.00 in0.0 mm 0.00 in0.0 mm
06:20 AM 46.7°F8.2°C 45.9°F7.7°C 97% Calm Calm 1.2 mph1.9 kmh 31.30 in1059.9 mb - 0.00 in0.0 mm 0.00 in0.0 mm
06:30 AM 46.9°F8.3°C 46.1°F7.8°C 97% 1.2 mph SE1.9 kmh SE 1.2 mph1.9 kmh 31.30 in1059.9 mb - 0.00 in0.0 mm 0.00 in0.0 mm
06:40 AM 46.4°F8.0°C 45.6°F7.6°C 97% Calm Calm -- 31.29 in1059.6 mb - 0.00 in0.0 mm 0.00 in0.0 mm
06:50 AM 47.1°F8.4°C 46.3°F7.9°C 97% 1.2 mph WSW1.9 kmh WSW 1.2 mph1.9 kmh 31.29 in1059.6 mb - 0.00 in0.0 mm 0.00 in0.0 mm
07:00 AM 47.5°F8.6°C 46.7°F8.2°C 97% Calm Calm -- 31.30 in1059.9 mb - 0.00 in0.0 mm 0.00 in0.0 mm
07:10 AM 47.9°F8.8°C 47.1°F8.4°C 97% Calm Calm 1.2 mph1.9 kmh 31.29 in1059.6 mb - 0.00 in0.0 mm 0.00 in0.0 mm
07:20 AM 47.9°F8.8°C 47.1°F8.4°C 97% Calm Calm -- 31.29 in1059.6 mb - 0.00 in0.0 mm 0.00 in0.0 mm
07:30 AM 47.4°F8.6°C 46.6°F8.1°C 97% 1.2 mph SE1.9 kmh SE 2.3 mph3.7 kmh 31.29 in1059.6 mb - 0.00 in0.0 mm 0.00 in0.0 mm
07:40 AM 47.6°F8.7°C 46.8°F8.2°C 97% 2.3 mph SE3.7 kmh SE 2.3 mph3.7 kmh 31.28 in1059.3 mb - 0.00 in0.0 mm 0.00 in0.0 mm
07:50 AM 48.2°F9.0°C 47.4°F8.6°C 97% 3.5 mph SE5.6 kmh SE 2.3 mph3.7 kmh 31.27 in1058.9 mb - 0.00 in0.0 mm 0.00 in0.0 mm
08:00 AM 48.4°F9.1°C 47.6°F8.7°C 97% 1.2 mph SE1.9 kmh SE 2.3 mph3.7 kmh 31.27 in1058.9 mb - 0.00 in0.0 mm 0.00 in0.0 mm
08:10 AM 48.6°F9.2°C 47.8°F8.8°C 97% 1.2 mph SSE1.9 kmh SSE 1.2 mph1.9 kmh 31.27 in1058.9 mb - 0.00 in0.0 mm 0.00 in0.0 mm
08:20 AM 47.9°F8.8°C 47.1°F8.4°C 97% 1.2 mph ESE1.9 kmh ESE 2.3 mph3.7 kmh 31.25 in1058.2 mb - 0.00 in0.0 mm 0.00 in0.0 mm
08:30 AM 47.9°F8.8°C 47.1°F8.4°C 97% 2.3 mph S3.7 kmh S 2.3 mph3.7 kmh 31.25 in1058.2 mb - 0.00 in0.0 mm 0.00 in0.0 mm
08:40 AM 48.6°F9.2°C 47.8°F8.8°C 97% 1.2 mph SE1.9 kmh SE 1.2 mph1.9 kmh 31.25 in1058.2 mb - 0.00 in0.0 mm 0.00 in0.0 mm
08:50 AM 48.6°F9.2°C 47.8°F8.8°C 97% Calm Calm 2.3 mph3.7 kmh 31.24 in1057.9 mb - 0.00 in0.0 mm 0.00 in0.0 mm
09:10 AM 49.3°F9.6°C 48.5°F9.2°C 97% 3.5 mph NE5.6 kmh NE 2.3 mph3.7 kmh 31.20 in1056.6 mb - 0.00 in0.0 mm 0.00 in0.0 mm
09:20 AM 49.4°F9.7°C 48.6°F9.2°C 97% 2.3 mph SE3.7 kmh SE 2.3 mph3.7 kmh 31.19 in1056.2 mb - 0.00 in0.0 mm 0.00 in0.0 mm
09:30 AM 49.4°F9.7°C 48.6°F9.2°C 97% 2.3 mph ENE3.7 kmh ENE 2.3 mph3.7 kmh 31.18 in1055.9 mb - 0.00 in0.0 mm 0.00 in0.0 mm
09:40 AM 49.9°F9.9°C 49.1°F9.5°C 97% 1.2 mph SSE1.9 kmh SSE 1.2 mph1.9 kmh 31.17 in1055.5 mb - 0.00 in0.0 mm 0.00 in0.0 mm
09:50 AM 50.5°F10.3°C 49.7°F9.8°C 97% 3.5 mph S5.6 kmh S 3.5 mph5.6 kmh 31.15 in1054.9 mb - 0.00 in0.0 mm 0.00 in0.0 mm
10:00 AM 50.9°F10.5°C 50.1°F10.1°C 97% 3.5 mph SSE5.6 kmh SSE 2.3 mph3.7 kmh 31.11 in1053.5 mb - 0.00 in0.0 mm 0.00 in0.0 mm
10:10 AM 51.6°F10.9°C 50.8°F10.4°C 97% 1.2 mph SE1.9 kmh SE 10.4 mph16.7 kmh 31.08 in1052.5 mb - 0.00 in0.0 mm 0.00 in0.0 mm
10:20 AM 51.6°F10.9°C 50.8°F10.4°C 97% 1.2 mph SW1.9 kmh SW -- 31.04 in1051.1 mb - 0.00 in0.0 mm 0.00 in0.0 mm
10:30 AM 51.9°F11.1°C 51.1°F10.6°C 97% 2.3 mph S3.7 kmh S 2.3 mph3.7 kmh 31.00 in1049.8 mb - 0.00 in0.0 mm 0.00 in0.0 mm
10:40 AM 52.3°F11.3°C 51.5°F10.8°C 97% 3.5 mph S5.6 kmh S 2.3 mph3.7 kmh 30.95 in1048.1 mb - 0.00 in0.0 mm 0.00 in0.0 mm
10:50 AM 52.7°F11.5°C 51.9°F11.1°C 97% 1.2 mph SE1.9 kmh SE 1.2 mph1.9 kmh 30.88 in1045.7 mb - 0.00 in0.0 mm 0.00 in0.0 mm
11:00 AM 53.0°F11.7°C 52.2°F11.2°C 97% 2.3 mph SE3.7 kmh SE 2.3 mph3.7 kmh 30.80 in1043.0 mb - 0.00 in0.0 mm 0.00 in0.0 mm
11:10 AM 53.6°F12.0°C 52.8°F11.6°C 97% 2.3 mph SE3.7 kmh SE 2.3 mph3.7 kmh 30.76 in1041.7 mb - 0.00 in0.0 mm 0.00 in0.0 mm
11:20 AM 54.4°F12.4°C 53.6°F12.0°C 97% 2.3 mph SE3.7 kmh SE 2.3 mph3.7 kmh 30.72 in1040.3 mb - 0.00 in0.0 mm 0.00 in0.0 mm
11:30 AM 54.9°F12.7°C 54.1°F12.3°C 97% 11.5 mph S18.5 kmh S 13.8 mph22.2 kmh 30.71 in1040.0 mb - 0.00 in0.0 mm 0.00 in0.0 mm
11:40 AM 55.1°F12.8°C 54.3°F12.4°C 97% 4.6 mph S7.4 kmh S 3.5 mph5.6 kmh 30.72 in1040.3 mb - 0.00 in0.0 mm 0.00 in0.0 mm
11:50 AM 55.7°F13.2°C 54.9°F12.7°C 97% 5.8 mph S9.3 kmh S 5.8 mph9.3 kmh 30.72 in1040.3 mb - 0.00 in0.0 mm 0.00 in0.0 mm
12:00 PM 56.3°F13.5°C 55.5°F13.1°C 97% 4.6 mph S7.4 kmh S 3.5 mph5.6 kmh 30.70 in1039.6 mb - 0.00 in0.0 mm 0.00 in0.0 mm
12:10 PM 56.7°F13.7°C 55.9°F13.3°C 97% 4.6 mph SSE7.4 kmh SSE 3.5 mph5.6 kmh 30.70 in1039.6 mb - 0.00 in0.0 mm 0.00 in0.0 mm
12:20 PM 57.1°F13.9°C 56.3°F13.5°C 97% 2.3 mph W3.7 kmh W 2.3 mph3.7 kmh 30.66 in1038.3 mb - 0.00 in0.0 mm 0.00 in0.0 mm
12:30 PM 57.5°F14.2°C 56.6°F13.7°C 97% 2.3 mph SW3.7 kmh SW 2.3 mph3.7 kmh 30.62 in1036.9 mb - 0.00 in0.0 mm 0.00 in0.0 mm
12:40 PM 57.8°F14.3°C 57.0°F13.9°C 97% 8.1 mph WSW13.0 kmh WSW 8.1 mph13.0 kmh 30.64 in1037.6 mb - 0.00 in0.0 mm 0.00 in0.0 mm
12:50 PM 57.5°F14.2°C 56.7°F13.7°C 97% 2.3 mph WSW3.7 kmh WSW 2.3 mph3.7 kmh 30.66 in1038.3 mb - 0.00 in0.0 mm 0.00 in0.0 mm
01:00 PM 57.3°F14.1°C 56.5°F13.6°C 97% 2.3 mph SW3.7 kmh SW 5.8 mph9.3 kmh 30.66 in1038.3 mb - 0.00 in0.0 mm 0.00 in0.0 mm
01:10 PM 56.7°F13.7°C 55.9°F13.3°C 97% 5.8 mph SE9.3 kmh SE 5.8 mph9.3 kmh 30.67 in1038.6 mb - 0.00 in0.0 mm 0.00 in0.0 mm
01:20 PM 56.7°F13.7°C 55.9°F13.3°C 97% 1.2 mph SSE1.9 kmh SSE 1.2 mph1.9 kmh 30.66 in1038.3 mb - 0.00 in0.0 mm 0.00 in0.0 mm
01:30 PM 56.4°F13.6°C 55.5°F13.1°C 97% 2.3 mph SE3.7 kmh SE 2.3 mph3.7 kmh 30.66 in1038.3 mb - 0.01 in0.3 mm 0.01 in0.3 mm
01:40 PM 56.2°F13.4°C 55.4°F13.0°C 97% 2.3 mph ESE3.7 kmh ESE 2.3 mph3.7 kmh 30.66 in1038.3 mb - 0.00 in0.0 mm 0.01 in0.3 mm
01:50 PM 56.2°F13.4°C 55.4°F13.0°C 97% 2.3 mph S3.7 kmh S 2.3 mph3.7 kmh 30.69 in1039.3 mb - 0.02 in0.5 mm 0.03 in0.8 mm
02:00 PM 56.1°F13.4°C 55.3°F12.9°C 97% 2.3 mph SE3.7 kmh SE 2.3 mph3.7 kmh 30.70 in1039.6 mb - 0.02 in0.5 mm 0.05 in1.3 mm
02:10 PM 55.7°F13.2°C 54.9°F12.7°C 97% 2.3 mph E3.7 kmh E 2.3 mph3.7 kmh 30.70 in1039.6 mb - 0.01 in0.3 mm 0.06 in1.5 mm
02:20 PM 55.7°F13.2°C 54.9°F12.7°C 97% 3.5 mph WSW5.6 kmh WSW 2.3 mph3.7 kmh 30.70 in1039.6 mb - 0.01 in0.3 mm 0.07 in1.8 mm
02:30 PM 55.6°F13.1°C 54.7°F12.6°C 97% 5.8 mph SW9.3 kmh SW 5.8 mph9.3 kmh 30.70 in1039.6 mb - 0.01 in0.3 mm 0.08 in2.0 mm
02:40 PM 56.4°F13.6°C 55.5°F13.1°C 97% 2.3 mph SE3.7 kmh SE 5.8 mph9.3 kmh 30.69 in1039.3 mb - 0.01 in0.3 mm 0.08 in2.0 mm
02:50 PM 56.7°F13.7°C 55.9°F13.3°C 97% 3.5 mph SE5.6 kmh SE 3.5 mph5.6 kmh 30.70 in1039.6 mb - 0.01 in0.3 mm 0.09 in2.3 mm
03:00 PM 57.1°F13.9°C 56.2°F13.4°C 97% 1.2 mph ESE1.9 kmh ESE 1.2 mph1.9 kmh 30.70 in1039.6 mb - 0.00 in0.0 mm 0.09 in2.3 mm
03:10 PM 57.6°F14.2°C 56.8°F13.8°C 97% 3.5 mph ESE5.6 kmh ESE 2.3 mph3.7 kmh 30.70 in1039.6 mb - 0.00 in0.0 mm 0.09 in2.3 mm
03:20 PM 57.7°F14.3°C 56.9°F13.8°C 97% 4.6 mph SE7.4 kmh SE 3.5 mph5.6 kmh 30.71 in1040.0 mb - 0.01 in0.3 mm 0.10 in2.5 mm
03:30 PM 57.6°F14.2°C 56.8°F13.8°C 97% 3.5 mph N5.6 kmh N 2.3 mph3.7 kmh 30.72 in1040.3 mb - 0.01 in0.3 mm 0.11 in2.8 mm
03:40 PM 57.2°F14.0°C 56.4°F13.6°C 97% 3.5 mph ESE5.6 kmh ESE 3.5 mph5.6 kmh 30.74 in1041.0 mb - 0.00 in0.0 mm 0.11 in2.8 mm
03:50 PM 57.4°F14.1°C 56.6°F13.7°C 97% 3.5 mph SSE5.6 kmh SSE 2.3 mph3.7 kmh 30.75 in1041.3 mb - 0.02 in0.5 mm 0.13 in3.3 mm
04:00 PM 57.2°F14.0°C 56.4°F13.6°C 97% 2.3 mph ESE3.7 kmh ESE 2.3 mph3.7 kmh 30.75 in1041.3 mb - 0.02 in0.5 mm 0.15 in3.8 mm
04:10 PM 57.3°F14.1°C 56.5°F13.6°C 97% 2.3 mph SSE3.7 kmh SSE 2.3 mph3.7 kmh 30.76 in1041.7 mb - 0.01 in0.3 mm 0.16 in4.1 mm
04:20 PM 57.3°F14.1°C 56.5°F13.6°C 97% 3.5 mph SE5.6 kmh SE 2.3 mph3.7 kmh 30.77 in1042.0 mb - 0.02 in0.5 mm 0.18 in4.6 mm
04:30 PM 57.2°F14.0°C 56.3°F13.5°C 97% 3.5 mph S5.6 kmh S 5.8 mph9.3 kmh 30.79 in1042.7 mb - 0.00 in0.0 mm 0.18 in4.6 mm
04:40 PM 57.0°F13.9°C 56.2°F13.4°C 97% 4.6 mph S7.4 kmh S 8.1 mph13.0 kmh 30.80 in1043.0 mb - 0.00 in0.0 mm 0.18 in4.6 mm
04:50 PM 56.9°F13.8°C 56.1°F13.4°C 97% 1.2 mph SSW1.9 kmh SSW 5.8 mph9.3 kmh 30.81 in1043.3 mb - 0.01 in0.3 mm 0.19 in4.8 mm
05:00 PM 56.6°F13.7°C 55.8°F13.2°C 97% 3.5 mph SE5.6 kmh SE 2.3 mph3.7 kmh 30.82 in1043.7 mb - 0.00 in0.0 mm 0.19 in4.8 mm
05:10 PM 56.6°F13.7°C 55.8°F13.2°C 97% 3.5 mph SE5.6 kmh SE 2.3 mph3.7 kmh 30.84 in1044.4 mb - 0.00 in0.0 mm 0.19 in4.8 mm
05:20 PM 56.8°F13.8°C 56.0°F13.3°C 97% 1.2 mph ENE1.9 kmh ENE 1.2 mph1.9 kmh 30.85 in1044.7 mb - 0.00 in0.0 mm 0.19 in4.8 mm
05:30 PM 56.9°F13.8°C 56.1°F13.4°C 97% 2.3 mph SE3.7 kmh SE 2.3 mph3.7 kmh 30.87 in1045.4 mb - 0.00 in0.0 mm 0.19 in4.8 mm
05:40 PM 57.1°F13.9°C 56.3°F13.5°C 97% 1.2 mph SSE1.9 kmh SSE 1.2 mph1.9 kmh 30.88 in1045.7 mb - 0.00 in0.0 mm 0.19 in4.8 mm
05:50 PM 56.8°F13.8°C 56.0°F13.3°C 97% 6.9 mph S11.1 kmh S 6.9 mph11.1 kmh 30.89 in1046.1 mb - 0.00 in0.0 mm 0.19 in4.8 mm
06:00 PM 57.6°F14.2°C 56.8°F13.8°C 97% 3.5 mph SE5.6 kmh SE 2.3 mph3.7 kmh 30.90 in1046.4 mb - 0.02 in0.5 mm 0.21 in5.3 mm
06:10 PM 57.8°F14.3°C 57.0°F13.9°C 97% 2.3 mph ESE3.7 kmh ESE 2.3 mph3.7 kmh 30.91 in1046.7 mb - 0.00 in0.0 mm 0.21 in5.3 mm
06:20 PM 56.3°F13.5°C 55.5°F13.1°C 97% 4.6 mph SE7.4 kmh SE 3.5 mph5.6 kmh 30.92 in1047.1 mb - 0.00 in0.0 mm 0.21 in5.3 mm
06:30 PM 55.5°F13.1°C 54.7°F12.6°C 97% 3.5 mph E5.6 kmh E 2.3 mph3.7 kmh 30.92 in1047.1 mb - 0.00 in0.0 mm 0.21 in5.3 mm
06:40 PM 55.1°F12.8°C 54.2°F12.3°C 97% 4.6 mph SE7.4 kmh SE 3.5 mph5.6 kmh 30.93 in1047.4 mb - 0.01 in0.3 mm 0.22 in5.6 mm
06:50 PM 55.1°F12.8°C 54.3°F12.4°C 97% 3.5 mph SSE5.6 kmh SSE 2.3 mph3.7 kmh 30.93 in1047.4 mb - 0.01 in0.3 mm 0.22 in5.6 mm
07:00 PM 55.2°F12.9°C 54.4°F12.4°C 97% 2.3 mph E3.7 kmh E 1.2 mph1.9 kmh 30.93 in1047.4 mb - 0.01 in0.3 mm 0.23 in5.8 mm
07:10 PM 55.4°F13.0°C 54.6°F12.6°C 97% 2.3 mph WSW3.7 kmh WSW 1.2 mph1.9 kmh 30.94 in1047.7 mb - 0.02 in0.5 mm 0.25 in6.4 mm
07:20 PM 55.7°F13.2°C 54.9°F12.7°C 97% 3.5 mph SE5.6 kmh SE 3.5 mph5.6 kmh 30.94 in1047.7 mb - 0.00 in0.0 mm 0.25 in6.4 mm
07:30 PM 56.0°F13.3°C 55.1°F12.8°C 97% 3.5 mph S5.6 kmh S 2.3 mph3.7 kmh 30.94 in1047.7 mb - 0.02 in0.5 mm 0.27 in6.9 mm
07:40 PM 55.6°F13.1°C 54.8°F12.7°C 97% Calm Calm 2.3 mph3.7 kmh 30.94 in1047.7 mb - 0.01 in0.3 mm 0.27 in6.9 mm
07:50 PM 56.1°F13.4°C 55.3°F12.9°C 97% 1.2 mph SE1.9 kmh SE 1.2 mph1.9 kmh 30.93 in1047.4 mb - 0.01 in0.3 mm 0.28 in7.1 mm
08:00 PM 56.3°F13.5°C 55.5°F13.1°C 97% 3.5 mph SE5.6 kmh SE 2.3 mph3.7 kmh 30.94 in1047.7 mb - 0.02 in0.5 mm 0.30 in7.6 mm
08:10 PM 56.4°F13.6°C 55.6°F13.1°C 97% 3.5 mph S5.6 kmh S 2.3 mph3.7 kmh 30.94 in1047.7 mb - 0.01 in0.3 mm 0.31 in7.9 mm
08:20 PM 56.8°F13.8°C 56.0°F13.3°C 97% 2.3 mph SE3.7 kmh SE 1.2 mph1.9 kmh 30.94 in1047.7 mb - 0.02 in0.5 mm 0.33 in8.4 mm
08:30 PM 56.9°F13.8°C 56.1°F13.4°C 97% 8.1 mph S13.0 kmh S 8.1 mph13.0 kmh 30.94 in1047.7 mb - 0.02 in0.5 mm 0.34 in8.6 mm
08:40 PM 56.9°F13.8°C 56.1°F13.4°C 97% 2.3 mph ESE3.7 kmh ESE 2.3 mph3.7 kmh 30.94 in1047.7 mb - 0.00 in0.0 mm 0.34 in8.6 mm
08:50 PM 57.0°F13.9°C 56.1°F13.4°C 97% 2.3 mph ESE3.7 kmh ESE 2.3 mph3.7 kmh 30.93 in1047.4 mb - 0.01 in0.3 mm 0.35 in8.9 mm
09:00 PM 57.4°F14.1°C 56.5°F13.6°C 97% 13.8 mph S22.2 kmh S 11.5 mph18.5 kmh 30.93 in1047.4 mb - 0.00 in0.0 mm 0.35 in8.9 mm
09:10 PM 57.1°F13.9°C 56.3°F13.5°C 97% 3.5 mph E5.6 kmh E 2.3 mph3.7 kmh 30.92 in1047.1 mb - 0.00 in0.0 mm 0.35 in8.9 mm
09:20 PM 57.2°F14.0°C 56.4°F13.6°C 97% 3.5 mph SE5.6 kmh SE 2.3 mph3.7 kmh 30.92 in1047.1 mb - 0.00 in0.0 mm 0.35 in8.9 mm
09:30 PM 57.3°F14.1°C 56.4°F13.6°C 97% 3.5 mph SE5.6 kmh SE 3.5 mph5.6 kmh 30.92 in1047.1 mb - 0.01 in0.3 mm 0.36 in9.1 mm
09:40 PM 57.1°F13.9°C 56.3°F13.5°C 97% 3.5 mph SE5.6 kmh SE 2.3 mph3.7 kmh 30.92 in1047.1 mb - 0.00 in0.0 mm 0.36 in9.1 mm
09:50 PM 57.4°F14.1°C 56.6°F13.7°C 97% 2.3 mph S3.7 kmh S 3.5 mph5.6 kmh 30.92 in1047.1 mb - 0.00 in0.0 mm 0.36 in9.1 mm
10:00 PM 58.0°F14.4°C 57.4°F14.1°C 98% 3.5 mph SE5.6 kmh SE 2.3 mph3.7 kmh 30.92 in1047.1 mb - 0.04 in1.0 mm 0.40 in10.2 mm
10:10 PM 57.7°F14.3°C 56.9°F13.8°C 97% Calm Calm -- 30.92 in1047.1 mb - 0.14 in3.6 mm 0.53 in13.5 mm
10:20 PM 57.3°F14.1°C 56.5°F13.6°C 97% 2.3 mph SE3.7 kmh SE 2.3 mph3.7 kmh 30.92 in1047.1 mb - 0.04 in1.0 mm 0.56 in14.2 mm
10:30 PM 57.0°F13.9°C 56.2°F13.4°C 97% 2.3 mph E3.7 kmh E 2.3 mph3.7 kmh 30.91 in1046.7 mb - 0.01 in0.3 mm 0.57 in14.5 mm
10:40 PM 56.5°F13.6°C 55.7°F13.2°C 97% Calm Calm 2.3 mph3.7 kmh 30.90 in1046.4 mb - 0.03 in0.8 mm 0.60 in15.2 mm
10:50 PM 55.9°F13.3°C 55.1°F12.8°C 97% 2.3 mph NE3.7 kmh NE 1.2 mph1.9 kmh 30.90 in1046.4 mb - 0.01 in0.3 mm 0.60 in15.2 mm
11:00 PM 55.9°F13.3°C 55.0°F12.8°C 97% 2.3 mph SE3.7 kmh SE 2.3 mph3.7 kmh 30.89 in1046.1 mb - 0.01 in0.3 mm 0.61 in15.5 mm
11:10 PM 55.9°F13.3°C 55.1°F12.8°C 97% 4.6 mph SE7.4 kmh SE 3.5 mph5.6 kmh 30.89 in1046.1 mb - 0.01 in0.3 mm 0.62 in15.7 mm
11:20 PM 55.7°F13.2°C 54.9°F12.7°C 97% 3.5 mph S5.6 kmh S 2.3 mph3.7 kmh 30.89 in1046.1 mb - 0.03 in0.8 mm 0.64 in16.3 mm
11:30 PM 55.7°F13.2°C 54.9°F12.7°C 97% 1.2 mph SSE1.9 kmh SSE 1.2 mph1.9 kmh 30.89 in1046.1 mb - 0.08 in2.0 mm 0.72 in18.3 mm
11:40 PM 55.7°F13.2°C 54.9°F12.7°C 97% 1.2 mph S1.9 kmh S 1.2 mph1.9 kmh 30.90 in1046.4 mb - 0.04 in1.0 mm 0.76 in19.3 mm
11:50 PM 55.7°F13.2°C 54.8°F12.7°C 97% Calm Calm 2.3 mph3.7 kmh 30.88 in1045.7 mb - 0.05 in1.3 mm 0.81 in20.6 mm